Kota Waris — S6RJ — position and weather

sailwx.info

Track history (hours):
 
Tides and Currents Weather Stations Pressure Air Temp Water Temp Dewpoint Dewpoint Depression Visibility Wind Speed Wind Dir Waves Ship Positions

Kota Waris

Last reported at 2017-Mar-22 17:24 UTC. Time now 2017-Mar-26 18:59 UTC.
Position N 01°24' E 104°27'.

Length 185 m; draft 6.2 m.

Type: Cargo ship. MMSI: 564482000.

Date/timePositionNaut miles runAvg speedWind from/ knotsBaromVisibWave heightAir tempDewpointWater temp
2017-Mar-22 17:24N 01°24' E 104°27'2613.9
2017-Mar-22 15:32N 01°14' E 104°03'1312.8
2017-Mar-22 14:33N 01°11' E 103°51'9 8.6
2017-Mar-22 13:33N 01°17' E 103°45'1 1.3
2017-Mar-22 12:33N 01°17' E 103°46'0 0.0
2017-Mar-22 11:33N 01°17' E 103°46'0 0.0
2017-Mar-22 10:24N 01°17' E 103°46'0 0.0
2017-Mar-22 09:27N 01°17' E 103°46'0 0.0
2017-Mar-22 08:33N 01°17' E 103°46'0 0.0
2017-Mar-22 07:33N 01°17' E 103°46'0 0.0
2017-Mar-22 06:33N 01°17' E 103°46'0 0.0
2017-Mar-22 05:30N 01°17' E 103°46'0 0.0
2017-Mar-22 04:30N 01°17' E 103°46'0 0.0
2017-Mar-22 03:33N 01°17' E 103°46'0 0.0
2017-Mar-22 02:30N 01°17' E 103°46'0 0.0
2017-Mar-22 01:33N 01°17' E 103°46'0 0.0
2017-Mar-22 00:33N 01°17' E 103°46'0 0.0
2017-Mar-21 23:33N 01°17' E 103°46'0 0.0
2017-Mar-21 22:33N 01°17' E 103°46'0 0.0
2017-Mar-21 21:30N 01°17' E 103°46'0 0.0
2017-Mar-21 20:33N 01°17' E 103°46'0 0.4
2017-Mar-21 19:33N 01°17' E 103°46'2 1.9
2017-Mar-21 18:31N 01°16' E 103°47'0 0.0
2017-Mar-21 17:28N 01°16' E 103°47'0 0.0
2017-Mar-21 16:31N 01°16' E 103°47'0 0.0
2017-Mar-21 15:31N 01°16' E 103°47'0 0.0
2017-Mar-21 14:31N 01°16' E 103°47'0 0.0
2017-Mar-21 13:28N 01°16' E 103°47'0 0.0
2017-Mar-21 12:25N 01°16' E 103°47'0 0.0
2017-Mar-21 11:25N 01°16' E 103°47'0 0.0
2017-Mar-21 10:31N 01°16' E 103°47'0 0.0
2017-Mar-21 09:30N 01°16' E 103°47'0 0.0
2017-Mar-21 08:25N 01°16' E 103°47'0 0.0
2017-Mar-21 07:33N 01°16' E 103°47'0 0.5
2017-Mar-21 06:33N 01°15' E 103°47'7 7.3
2017-Mar-21 05:33N 01°14' E 103°54'3 3.1
2017-Mar-21 04:33N 01°14' E 103°57'4 4.3
2017-Mar-21 03:33N 01°16' E 104°01'  
2017-Mar-15 06:17N 01°15' E 104°09'1215.4
2017-Mar-15 05:30N 01°13' E 103°57'9 9.8
2017-Mar-15 04:34N 01°13' E 103°48'5 4.9
2017-Mar-15 03:33N 01°17' E 103°46'0 0.0
2017-Mar-15 02:33N 01°17' E 103°46'0 0.0
2017-Mar-15 01:33N 01°17' E 103°46'0 0.0
2017-Mar-15 00:33N 01°17' E 103°46'0 0.0
2017-Mar-14 23:33N 01°17' E 103°46'0 0.0
2017-Mar-14 22:33N 01°17' E 103°46'0 0.0
2017-Mar-14 21:33N 01°17' E 103°46'0 0.0
2017-Mar-14 20:33N 01°17' E 103°46'0 0.0
2017-Mar-14 19:33N 01°17' E 103°46'0 0.0
2017-Mar-14 18:33N 01°17' E 103°46'0 0.0
2017-Mar-14 17:33N 01°17' E 103°46'0 0.0
2017-Mar-14 16:33N 01°17' E 103°46'0 0.0
2017-Mar-14 15:33N 01°17' E 103°46'0 0.0
2017-Mar-14 14:33N 01°17' E 103°46'0 0.0
2017-Mar-14 13:33N 01°17' E 103°46'0 0.0
2017-Mar-14 12:33N 01°17' E 103°46'0 0.0
2017-Mar-14 11:33N 01°17' E 103°46'0 0.0
2017-Mar-14 10:33N 01°17' E 103°46'0 0.0
2017-Mar-14 09:30N 01°17' E 103°46'0 0.0
2017-Mar-14 08:33N 01°17' E 103°46'0 0.0
2017-Mar-14 07:33N 01°17' E 103°46'0 0.0
2017-Mar-14 06:33N 01°17' E 103°46'0 0.0
2017-Mar-14 05:33N 01°17' E 103°46'0 0.0
2017-Mar-14 04:33N 01°17' E 103°46'0 0.4
2017-Mar-14 03:34N 01°17' E 103°46'8 7.5
2017-Mar-14 02:33N 01°13' E 103°52'2 2.1
2017-Mar-14 01:24N 01°15' E 103°53'0 0.0
2017-Mar-14 00:30N 01°15' E 103°53'0 0.0
2017-Mar-13 23:33N 01°15' E 103°53'0 0.0
2017-Mar-13 22:33N 01°15' E 103°53'2 1.7
2017-Mar-13 21:34N 01°14' E 103°54'5 5.0
2017-Mar-13 20:33N 01°15' E 103°59'  
Track history (hours):
 
Tides and Currents Weather Stations Pressure Air Temp Water Temp Dewpoint Dewpoint Depression Visibility Wind Speed Wind Dir Waves Ship Positions

Kota Waris

Last reported at 2017-Mar-22 17:24 UTC. Time now 2017-Mar-26 18:59 UTC.
Position N 01°24' E 104°27'.

Length 185 m; draft 6.2 m.

Type: Cargo ship. MMSI: 564482000.

Date/timePositionNaut miles runAvg speedWind from/ knotsBaromVisibWave heightAir tempDewpointWater temp
2017-Mar-22 17:24N 01°24' E 104°27'2613.9
2017-Mar-22 15:32N 01°14' E 104°03'1312.8
2017-Mar-22 14:33N 01°11' E 103°51'9 8.6
2017-Mar-22 13:33N 01°17' E 103°45'1 1.3
2017-Mar-22 12:33N 01°17' E 103°46'0 0.0
2017-Mar-22 11:33N 01°17' E 103°46'0 0.0
2017-Mar-22 10:24N 01°17' E 103°46'0 0.0
2017-Mar-22 09:27N 01°17' E 103°46'0 0.0
2017-Mar-22 08:33N 01°17' E 103°46'0 0.0
2017-Mar-22 07:33N 01°17' E 103°46'0 0.0
2017-Mar-22 06:33N 01°17' E 103°46'0 0.0
2017-Mar-22 05:30N 01°17' E 103°46'0 0.0
2017-Mar-22 04:30N 01°17' E 103°46'0 0.0
2017-Mar-22 03:33N 01°17' E 103°46'0 0.0
2017-Mar-22 02:30N 01°17' E 103°46'0 0.0
2017-Mar-22 01:33N 01°17' E 103°46'0 0.0
2017-Mar-22 00:33N 01°17' E 103°46'0 0.0
2017-Mar-21 23:33N 01°17' E 103°46'0 0.0
2017-Mar-21 22:33N 01°17' E 103°46'0 0.0
2017-Mar-21 21:30N 01°17' E 103°46'0 0.0
2017-Mar-21 20:33N 01°17' E 103°46'0 0.4
2017-Mar-21 19:33N 01°17' E 103°46'2 1.9
2017-Mar-21 18:31N 01°16' E 103°47'0 0.0
2017-Mar-21 17:28N 01°16' E 103°47'0 0.0
2017-Mar-21 16:31N 01°16' E 103°47'0 0.0
2017-Mar-21 15:31N 01°16' E 103°47'0 0.0
2017-Mar-21 14:31N 01°16' E 103°47'0 0.0
2017-Mar-21 13:28N 01°16' E 103°47'0 0.0
2017-Mar-21 12:25N 01°16' E 103°47'0 0.0
2017-Mar-21 11:25N 01°16' E 103°47'0 0.0
2017-Mar-21 10:31N 01°16' E 103°47'0 0.0
2017-Mar-21 09:30N 01°16' E 103°47'0 0.0
2017-Mar-21 08:25N 01°16' E 103°47'0 0.0
2017-Mar-21 07:33N 01°16' E 103°47'0 0.5
2017-Mar-21 06:33N 01°15' E 103°47'7 7.3
2017-Mar-21 05:33N 01°14' E 103°54'3 3.1
2017-Mar-21 04:33N 01°14' E 103°57'4 4.3
2017-Mar-21 03:33N 01°16' E 104°01'  
2017-Mar-15 06:17N 01°15' E 104°09'1215.4
2017-Mar-15 05:30N 01°13' E 103°57'9 9.8
2017-Mar-15 04:34N 01°13' E 103°48'5 4.9
2017-Mar-15 03:33N 01°17' E 103°46'0 0.0
2017-Mar-15 02:33N 01°17' E 103°46'0 0.0
2017-Mar-15 01:33N 01°17' E 103°46'0 0.0
2017-Mar-15 00:33N 01°17' E 103°46'0 0.0
2017-Mar-14 23:33N 01°17' E 103°46'0 0.0
2017-Mar-14 22:33N 01°17' E 103°46'0 0.0
2017-Mar-14 21:33N 01°17' E 103°46'0 0.0
2017-Mar-14 20:33N 01°17' E 103°46'0 0.0
2017-Mar-14 19:33N 01°17' E 103°46'0 0.0
2017-Mar-14 18:33N 01°17' E 103°46'0 0.0
2017-Mar-14 17:33N 01°17' E 103°46'0 0.0
2017-Mar-14 16:33N 01°17' E 103°46'0 0.0
2017-Mar-14 15:33N 01°17' E 103°46'0 0.0
2017-Mar-14 14:33N 01°17' E 103°46'0 0.0
2017-Mar-14 13:33N 01°17' E 103°46'0 0.0
2017-Mar-14 12:33N 01°17' E 103°46'0 0.0
2017-Mar-14 11:33N 01°17' E 103°46'0 0.0
2017-Mar-14 10:33N 01°17' E 103°46'0 0.0
2017-Mar-14 09:30N 01°17' E 103°46'0 0.0
2017-Mar-14 08:33N 01°17' E 103°46'0 0.0
2017-Mar-14 07:33N 01°17' E 103°46'0 0.0
2017-Mar-14 06:33N 01°17' E 103°46'0 0.0
2017-Mar-14 05:33N 01°17' E 103°46'0 0.0
2017-Mar-14 04:33N 01°17' E 103°46'0 0.4
2017-Mar-14 03:34N 01°17' E 103°46'8 7.5
2017-Mar-14 02:33N 01°13' E 103°52'2 2.1
2017-Mar-14 01:24N 01°15' E 103°53'0 0.0
2017-Mar-14 00:30N 01°15' E 103°53'0 0.0
2017-Mar-13 23:33N 01°15' E 103°53'0 0.0
2017-Mar-13 22:33N 01°15' E 103°53'2 1.7
2017-Mar-13 21:34N 01°14' E 103°54'5 5.0
2017-Mar-13 20:33N 01°15' E 103°59'  

Dump ship's entire track history